createdAt,value
2018-10-06T00:01:23.189Z,2.70
2018-10-06T00:03:52.601Z,2.70
2018-10-06T00:06:21.112Z,2.87
2018-10-06T00:08:49.285Z,2.80
2018-10-06T00:11:17.678Z,2.93
2018-10-06T00:13:45.277Z,2.90
2018-10-06T00:16:12.871Z,2.50
2018-10-06T00:18:40.680Z,2.90
2018-10-06T00:21:09.372Z,2.90
2018-10-06T00:23:38.213Z,2.60
2018-10-06T00:26:06.086Z,2.60
2018-10-06T00:28:33.580Z,2.70
2018-10-06T00:31:02.663Z,2.60
2018-10-06T00:33:30.235Z,2.60
2018-10-06T00:35:57.825Z,2.67
2018-10-06T00:38:25.728Z,2.40
2018-10-06T00:40:53.319Z,2.87
2018-10-06T00:43:20.867Z,2.53
2018-10-06T00:45:48.392Z,2.70
2018-10-06T00:48:16.320Z,2.00
2018-10-06T00:50:44.555Z,2.20
2018-10-06T00:53:12.161Z,2.50
2018-10-06T00:55:39.672Z,2.40
2018-10-06T00:58:07.435Z,2.23
2018-10-06T01:00:34.940Z,2.20
2018-10-06T01:03:03.631Z,2.50
2018-10-06T01:05:31.683Z,2.50
2018-10-06T01:08:00.152Z,2.63
2018-10-06T01:10:27.694Z,3.13
2018-10-06T01:12:55.739Z,2.50
2018-10-06T01:15:23.765Z,2.20
2018-10-06T01:17:51.975Z,2.50
2018-10-06T01:20:20.043Z,2.83
2018-10-06T01:22:48.107Z,2.73
2018-10-06T01:25:16.382Z,2.37
2018-10-06T01:27:43.877Z,2.03
2018-10-06T01:30:11.430Z,2.03
2018-10-06T01:32:39.182Z,2.00
2018-10-06T01:35:06.703Z,2.00
2018-10-06T01:37:34.486Z,1.50
2018-10-06T01:40:02.187Z,1.90
2018-10-06T01:42:29.703Z,2.43
2018-10-06T01:44:57.208Z,2.10
2018-10-06T01:47:25.296Z,2.53
2018-10-06T01:49:53.522Z,2.57
2018-10-06T01:52:22.044Z,2.67
2018-10-06T01:54:49.539Z,2.80
2018-10-06T01:57:17.049Z,2.20
2018-10-06T01:59:44.733Z,2.47
2018-10-06T02:02:12.248Z,2.93
2018-10-06T02:04:41.102Z,2.67
2018-10-06T02:07:09.032Z,2.60
2018-10-06T02:09:37.157Z,2.37
2018-10-06T02:12:05.129Z,2.50
2018-10-06T02:14:33.521Z,2.50
2018-10-06T02:17:01.044Z,2.17
2018-10-06T02:19:29.552Z,2.57
2018-10-06T02:21:57.932Z,2.63
2018-10-06T02:24:26.021Z,2.70
2018-10-06T02:26:53.527Z,2.20
2018-10-06T02:29:21.654Z,2.23
2018-10-06T02:31:49.303Z,2.30
2018-10-06T02:34:16.805Z,2.57
2018-10-06T02:36:44.795Z,2.10
2018-10-06T02:39:13.117Z,2.33
2018-10-06T02:41:40.639Z,2.30
2018-10-06T02:44:08.158Z,2.00
2018-10-06T02:46:36.045Z,2.70
2018-10-06T02:49:03.947Z,2.23
2018-10-06T02:51:31.923Z,2.27
2018-10-06T02:53:59.451Z,2.27
2018-10-06T02:56:26.970Z,2.80
2018-10-06T02:58:54.500Z,2.20
2018-10-06T03:01:23.182Z,2.57
2018-10-06T03:03:51.247Z,2.63
2018-10-06T03:06:18.823Z,2.60
2018-10-06T03:08:46.295Z,2.17
2018-10-06T03:11:13.861Z,2.30
2018-10-06T03:13:42.427Z,2.10
2018-10-06T03:16:10.592Z,2.10
2018-10-06T03:18:38.075Z,2.00
2018-10-06T03:21:06.649Z,2.07
2018-10-06T03:23:34.736Z,2.10
2018-10-06T03:26:02.261Z,2.13
2018-10-06T03:28:29.780Z,2.10
2018-10-06T03:30:57.520Z,2.13
2018-10-06T03:33:25.013Z,2.37
2018-10-06T03:35:52.613Z,2.30
2018-10-06T03:38:20.524Z,2.10
2018-10-06T03:40:48.024Z,2.30
2018-10-06T03:43:16.511Z,2.20
2018-10-06T03:45:44.028Z,2.77
2018-10-06T03:48:11.904Z,2.50
2018-10-06T03:50:40.493Z,2.20
2018-10-06T03:53:07.992Z,2.33
2018-10-06T03:55:35.536Z,2.20
2018-10-06T03:58:03.285Z,2.50
2018-10-06T04:00:31.469Z,2.70
2018-10-06T04:02:59.784Z,2.43
2018-10-06T04:05:27.832Z,2.27
2018-10-06T04:07:55.328Z,2.10
2018-10-06T04:10:24.184Z,2.40
2018-10-06T04:12:52.260Z,2.30
2018-10-06T04:15:19.792Z,2.10
2018-10-06T04:17:47.332Z,2.67
2018-10-06T04:20:14.920Z,2.57
2018-10-06T04:22:42.916Z,2.37
2018-10-06T04:25:11.101Z,2.70
2018-10-06T04:27:38.836Z,2.67
2018-10-06T04:30:06.805Z,2.40
2018-10-06T04:32:34.344Z,2.70
2018-10-06T04:35:01.870Z,2.70
2018-10-06T04:37:29.840Z,2.67
2018-10-06T04:39:57.428Z,2.37
2018-10-06T04:42:24.925Z,2.60
2018-10-06T04:44:52.421Z,2.90
2018-10-06T04:47:20.272Z,2.90
2018-10-06T04:49:48.404Z,3.20
2018-10-06T04:52:16.489Z,2.90
2018-10-06T04:54:44.303Z,3.17
2018-10-06T04:57:11.815Z,3.70
2018-10-06T04:59:40.290Z,2.37
2018-10-06T05:02:07.833Z,2.77
2018-10-06T05:04:35.981Z,2.57
2018-10-06T05:07:04.820Z,2.90
2018-10-06T05:09:32.899Z,2.90
2018-10-06T05:12:01.154Z,2.70
2018-10-06T05:14:28.692Z,2.67
2018-10-06T05:16:56.862Z,2.90
2018-10-06T05:19:24.399Z,2.90
2018-10-06T05:21:52.643Z,2.83
2018-10-06T05:24:21.479Z,2.43
2018-10-06T05:26:49.178Z,2.60
2018-10-06T05:29:16.682Z,2.00
2018-10-06T05:31:45.688Z,2.63
2018-10-06T05:34:13.317Z,2.63
2018-10-06T05:36:40.718Z,2.40
2018-10-06T05:39:09.823Z,2.30
2018-10-06T05:41:38.318Z,2.90
2018-10-06T05:44:06.598Z,3.63
2018-10-06T05:46:34.398Z,3.30
2018-10-06T05:49:02.700Z,2.40
2018-10-06T05:51:30.773Z,2.53
2018-10-06T05:53:58.334Z,2.70
2018-10-06T05:56:26.733Z,2.63
2018-10-06T05:58:54.542Z,2.20
2018-10-06T06:01:22.509Z,2.10
2018-10-06T06:03:51.213Z,2.90
2018-10-06T06:06:19.910Z,2.20
2018-10-06T06:08:48.197Z,2.40
2018-10-06T06:11:15.704Z,2.60
2018-10-06T06:13:44.592Z,2.03
2018-10-06T06:16:12.125Z,2.60
2018-10-06T06:18:39.632Z,2.50
2018-10-06T06:21:07.729Z,2.37
2018-10-06T06:23:36.328Z,2.47
2018-10-06T06:26:05.004Z,2.43
2018-10-06T06:28:32.484Z,2.47
2018-10-06T06:31:00.036Z,2.00
2018-10-06T06:33:27.590Z,2.13
2018-10-06T06:35:55.097Z,3.20
2018-10-06T06:38:22.797Z,3.10
2018-10-06T06:40:51.121Z,3.00
2018-10-06T06:43:18.623Z,2.30
2018-10-06T06:45:46.221Z,2.90
2018-10-06T06:48:14.265Z,2.40
2018-10-06T06:50:42.380Z,2.37
2018-10-06T06:53:09.897Z,2.50
2018-10-06T06:55:37.934Z,2.30
2018-10-06T06:58:05.518Z,2.63
2018-10-06T07:00:33.976Z,2.90
2018-10-06T07:03:01.928Z,2.70
2018-10-06T07:05:30.047Z,2.50
2018-10-06T07:07:57.716Z,2.80
2018-10-06T07:10:26.288Z,2.70
2018-10-06T07:12:54.322Z,2.27
2018-10-06T07:15:22.410Z,2.50
2018-10-06T07:17:50.551Z,2.47
2018-10-06T07:20:18.237Z,2.80
2018-10-06T07:22:46.593Z,2.43
2018-10-06T07:25:14.828Z,2.70
2018-10-06T07:27:42.339Z,2.60
2018-10-06T07:30:10.055Z,2.37
2018-10-06T07:32:37.892Z,2.30
2018-10-06T07:35:05.413Z,2.10
2018-10-06T07:37:32.931Z,2.77
2018-10-06T07:40:01.071Z,2.40
2018-10-06T07:42:28.591Z,2.50
2018-10-06T07:44:56.293Z,2.67
2018-10-06T07:47:24.229Z,2.40
2018-10-06T07:49:52.651Z,2.50
2018-10-06T07:52:20.813Z,2.23
2018-10-06T07:54:48.412Z,2.50
2018-10-06T07:57:15.955Z,2.30
2018-10-06T07:59:44.035Z,2.57
2018-10-06T08:02:12.309Z,2.40
2018-10-06T08:04:41.301Z,2.30
2018-10-06T08:07:08.806Z,2.47
2018-10-06T08:09:36.305Z,2.63
2018-10-06T08:12:04.527Z,2.63
2018-10-06T08:14:32.118Z,2.40
2018-10-06T08:16:59.629Z,2.20
2018-10-06T08:19:27.705Z,2.20
2018-10-06T08:21:56.669Z,2.27
2018-10-06T08:24:24.881Z,2.40
2018-10-06T08:26:52.440Z,2.30
2018-10-06T08:29:20.081Z,2.50
2018-10-06T08:31:47.823Z,2.23
2018-10-06T08:41:03.420Z,2.50
2018-10-06T08:43:31.356Z,2.27
2018-10-06T08:45:58.901Z,2.10
2018-10-06T08:48:28.325Z,2.77
2018-10-06T08:50:56.675Z,2.50
2018-10-06T08:53:24.195Z,2.37
2018-10-06T08:55:51.710Z,2.13
2018-10-06T08:58:19.893Z,2.00
2018-10-06T09:00:48.155Z,2.33
2018-10-06T09:03:16.327Z,2.20
2018-10-06T09:05:45.003Z,2.07
2018-10-06T09:08:13.109Z,2.50
2018-10-06T09:10:40.721Z,2.40
2018-10-06T09:13:09.068Z,2.30
2018-10-06T09:15:37.429Z,2.43
2018-10-06T09:18:04.976Z,2.33
2018-10-06T09:20:32.496Z,2.90
2018-10-06T09:23:00.577Z,2.37
2018-10-06T09:25:28.928Z,2.43
2018-10-06T09:27:57.212Z,2.30
2018-10-06T09:30:25.120Z,2.40
2018-10-06T09:32:53.566Z,2.03
2018-10-06T09:35:22.545Z,2.37
2018-10-06T09:37:51.061Z,2.17
2018-10-06T09:40:18.581Z,2.40
2018-10-06T09:42:46.209Z,2.30
2018-10-06T09:45:14.044Z,2.20
2018-10-06T09:47:41.920Z,2.17
2018-10-06T09:50:09.416Z,1.90
2018-10-06T09:52:37.348Z,2.33
2018-10-06T09:55:04.913Z,1.83
2018-10-06T09:57:32.988Z,2.40
2018-10-06T10:00:01.441Z,2.20
2018-10-06T10:02:34.621Z,2.10
2018-10-06T10:05:08.481Z,2.20
2018-10-06T10:07:36.000Z,1.87
2018-10-06T10:10:04.886Z,2.40
2018-10-06T10:12:33.214Z,2.43
2018-10-06T10:15:01.712Z,2.67
2018-10-06T10:17:29.395Z,2.50
2018-10-06T10:19:57.189Z,2.37
2018-10-06T10:22:25.613Z,2.17
2018-10-06T10:24:53.695Z,2.50
2018-10-06T10:27:21.214Z,2.00
2018-10-06T10:29:49.481Z,2.23
2018-10-06T10:32:17.815Z,2.20
2018-10-06T10:34:46.111Z,2.33
2018-10-06T10:37:13.836Z,2.00
2018-10-06T10:39:41.378Z,2.20
2018-10-06T10:42:08.963Z,2.20
2018-10-06T10:46:06.724Z,2.17
2018-10-06T10:48:34.933Z,2.40
2018-10-06T10:51:03.283Z,2.23
2018-10-06T10:53:31.777Z,2.37
2018-10-06T10:55:59.963Z,2.57
2018-10-06T10:58:27.597Z,2.87
2018-10-06T11:00:55.309Z,2.60
2018-10-06T11:03:23.056Z,2.40
2018-10-06T11:05:50.588Z,2.43
2018-10-06T11:08:18.347Z,2.50
2018-10-06T11:10:45.943Z,1.97
2018-10-06T11:13:14.864Z,2.43
2018-10-06T11:15:43.014Z,2.57
2018-10-06T11:18:10.739Z,2.70
2018-10-06T11:20:38.585Z,2.13
2018-10-06T11:23:06.946Z,2.40
2018-10-06T11:25:35.139Z,2.50
2018-10-06T11:28:02.728Z,2.60
2018-10-06T11:30:32.211Z,2.10
2018-10-06T11:33:00.334Z,2.13
2018-10-06T11:35:27.852Z,2.20
2018-10-06T11:37:56.173Z,2.67
2018-10-06T11:40:23.685Z,2.47
2018-10-06T11:42:52.069Z,3.03
2018-10-06T11:45:19.637Z,2.20
2018-10-06T11:47:48.228Z,2.40
2018-10-06T11:50:16.570Z,1.90
2018-10-06T11:52:44.664Z,2.40
2018-10-06T11:55:12.973Z,2.20
2018-10-06T11:57:40.588Z,2.40
2018-10-06T12:00:08.243Z,1.90
2018-10-06T12:02:35.776Z,2.10
2018-10-06T12:05:03.580Z,2.10
2018-10-06T12:07:31.436Z,2.50
2018-10-06T12:09:59.525Z,2.40
2018-10-06T12:12:27.686Z,2.00
2018-10-06T12:14:55.725Z,2.33
2018-10-06T12:17:23.325Z,2.00
2018-10-06T12:19:50.828Z,2.10
2018-10-06T12:22:18.939Z,2.27
2018-10-06T12:24:46.853Z,2.20
2018-10-06T12:27:14.886Z,2.40
2018-10-06T12:29:43.070Z,2.00
2018-10-06T12:32:11.452Z,2.07
2018-10-06T12:34:39.000Z,2.00
2018-10-06T12:37:06.460Z,2.10
2018-10-06T12:39:34.646Z,2.40
2018-10-06T12:42:02.226Z,2.50
2018-10-06T12:44:29.687Z,2.20
2018-10-06T12:46:57.444Z,2.63
2018-10-06T12:49:25.637Z,2.60
2018-10-06T12:51:54.323Z,2.30
2018-10-06T12:54:21.857Z,2.63
2018-10-06T12:56:49.445Z,2.17
2018-10-06T12:59:17.925Z,2.07
2018-10-06T13:01:45.459Z,2.67
2018-10-06T13:04:13.038Z,2.00
2018-10-06T13:06:41.437Z,2.27
2018-10-06T13:09:10.382Z,2.40
2018-10-06T13:11:38.263Z,2.60
2018-10-06T13:14:06.494Z,2.40
2018-10-06T13:16:34.012Z,2.40
2018-10-06T13:19:01.519Z,2.80
2018-10-06T13:21:29.697Z,2.30
2018-10-06T13:23:57.862Z,2.57
2018-10-06T13:26:26.059Z,2.53
2018-10-06T13:28:54.229Z,2.57
2018-10-06T13:31:21.771Z,2.50
2018-10-06T13:33:50.167Z,2.47
2018-10-06T13:36:18.356Z,2.47
2018-10-06T13:38:46.576Z,2.50
2018-10-06T13:41:14.093Z,2.40
2018-10-06T13:43:41.775Z,2.60
2018-10-06T13:46:10.272Z,3.60
2018-10-06T13:48:38.936Z,3.20
2018-10-06T13:51:07.329Z,2.60
2018-10-06T13:53:35.296Z,2.90
2018-10-06T13:56:02.916Z,2.40
2018-10-06T13:58:31.408Z,2.07
2018-10-06T14:00:58.959Z,2.90
2018-10-06T14:03:26.910Z,2.10
2018-10-06T14:05:54.765Z,2.20
2018-10-06T14:08:22.387Z,2.30
2018-10-06T14:10:50.707Z,2.70
2018-10-06T14:13:18.215Z,2.63
2018-10-06T14:15:45.768Z,1.90
2018-10-06T14:18:13.388Z,2.30
2018-10-06T14:20:41.452Z,2.10
2018-10-06T14:23:09.588Z,2.50
2018-10-06T14:25:38.148Z,3.20
2018-10-06T14:28:05.672Z,2.50
2018-10-06T14:30:34.093Z,2.00
2018-10-06T14:33:02.372Z,2.30
2018-10-06T14:35:31.458Z,2.63
2018-10-06T14:37:59.755Z,2.07
2018-10-06T14:40:28.269Z,2.27
2018-10-06T14:42:55.835Z,2.10
2018-10-06T14:45:23.856Z,2.30
2018-10-06T14:47:52.193Z,2.57
2018-10-06T14:50:20.463Z,1.90
2018-10-06T14:52:47.955Z,1.73
2018-10-06T14:55:15.499Z,4.43
2018-10-06T14:57:43.430Z,3.70
2018-10-06T15:00:11.029Z,3.70
2018-10-06T15:02:39.123Z,5.17
2018-10-06T15:05:07.433Z,4.13
2018-10-06T15:07:35.452Z,5.47
2018-10-06T15:10:04.052Z,7.00
2018-10-06T15:12:31.549Z,5.30
2018-10-06T15:14:59.761Z,3.20
2018-10-06T15:17:27.359Z,2.50
2018-10-06T15:19:55.540Z,2.23
2018-10-06T15:22:25.305Z,4.23
2018-10-06T15:24:54.027Z,11.80
2018-10-06T15:27:21.539Z,5.30
2018-10-06T15:29:50.059Z,5.93
2018-10-06T15:32:18.094Z,6.20
2018-10-06T15:34:45.625Z,4.93
2018-10-06T15:37:13.871Z,3.83
2018-10-06T15:39:41.402Z,3.27
2018-10-06T15:42:09.727Z,3.50
2018-10-06T15:44:38.723Z,2.70
2018-10-06T15:47:06.997Z,2.07
2018-10-06T15:49:34.908Z,2.50
2018-10-06T15:52:03.178Z,2.23
2018-10-06T15:54:30.738Z,1.67
2018-10-06T15:56:58.281Z,1.60
2018-10-06T15:59:26.289Z,1.87
2018-10-06T16:01:54.460Z,2.57
2018-10-06T16:04:21.988Z,2.90
2018-10-06T16:06:50.385Z,3.47
2018-10-06T16:09:19.137Z,4.47
2018-10-06T16:11:46.651Z,3.53
2018-10-06T16:14:14.301Z,2.37
2018-10-06T16:16:42.484Z,2.20
2018-10-06T16:19:09.991Z,18.73
2018-10-06T16:21:38.750Z,23.20
2018-10-06T16:24:07.710Z,14.20
2018-10-06T16:27:07.324Z,11.77
2018-10-06T16:29:35.289Z,6.77
2018-10-06T16:32:03.890Z,3.80
2018-10-06T16:34:32.073Z,3.07
2018-10-06T16:36:59.558Z,2.93
2018-10-06T16:39:27.599Z,2.70
2018-10-06T16:41:55.994Z,3.00
2018-10-06T16:44:23.485Z,4.20
2018-10-06T16:46:51.013Z,4.93
2018-10-06T16:49:19.139Z,4.67
2018-10-06T16:51:47.149Z,5.90
2018-10-06T16:54:14.629Z,4.07
2018-10-06T16:56:42.136Z,3.57
2018-10-06T16:59:09.695Z,3.47
2018-10-06T17:01:37.227Z,3.70
2018-10-06T17:04:05.409Z,5.30
2018-10-06T17:06:33.614Z,6.47
2018-10-06T17:09:01.801Z,4.53
2018-10-06T17:11:30.349Z,4.53
2018-10-06T17:13:58.725Z,4.17
2018-10-06T17:16:26.816Z,3.10
2018-10-06T17:18:54.400Z,2.60
2018-10-06T17:21:22.637Z,3.97
2018-10-06T17:23:50.628Z,4.17
2018-10-06T17:26:18.776Z,5.47
2018-10-06T17:28:47.175Z,6.97
2018-10-06T17:31:15.307Z,9.50
2018-10-06T17:33:43.281Z,9.43
2018-10-06T17:37:41.151Z,11.40
2018-10-06T17:40:09.536Z,15.77
2018-10-06T17:42:37.719Z,10.70
2018-10-06T17:45:05.296Z,5.10
2018-10-06T17:47:33.748Z,3.60
2018-10-06T17:50:01.494Z,4.40
2018-10-06T17:52:28.822Z,3.23
2018-10-06T17:54:56.655Z,4.43
2018-10-06T17:57:24.154Z,11.60
2018-10-06T17:59:52.615Z,10.17
2018-10-06T18:02:20.731Z,7.40
2018-10-06T18:04:48.269Z,6.50
2018-10-06T18:07:15.773Z,4.93
2018-10-06T18:09:43.908Z,4.90
2018-10-06T18:12:12.151Z,3.60
2018-10-06T18:14:39.886Z,3.03
2018-10-06T18:17:07.382Z,3.30
2018-10-06T18:19:35.181Z,3.80
2018-10-06T18:22:03.567Z,6.60
2018-10-06T18:24:32.114Z,7.63
2018-10-06T18:27:00.412Z,6.53
2018-10-06T18:29:28.502Z,6.00
2018-10-06T18:31:55.983Z,6.67
2018-10-06T18:34:24.240Z,6.97
2018-10-06T18:36:52.462Z,6.00
2018-10-06T18:39:19.949Z,5.50
2018-10-06T18:41:49.100Z,6.17
2018-10-06T18:44:17.168Z,6.03
2018-10-06T18:46:44.697Z,6.40
2018-10-06T18:49:12.938Z,5.43
2018-10-06T18:51:40.464Z,4.20
2018-10-06T18:54:08.808Z,3.57
2018-10-06T18:56:36.430Z,4.40
2018-10-06T18:59:03.985Z,9.23
2018-10-06T19:01:31.708Z,6.80
2018-10-06T19:04:00.165Z,4.87
2018-10-06T19:06:28.413Z,5.23
2018-10-06T19:08:56.534Z,17.63
2018-10-06T19:11:24.736Z,19.73
2018-10-06T19:13:52.779Z,14.93
2018-10-06T19:16:20.486Z,13.67
2018-10-06T19:18:48.134Z,10.47
2018-10-06T19:21:16.664Z,12.50
2018-10-06T19:23:44.882Z,11.57
2018-10-06T19:26:13.891Z,11.53
2018-10-06T19:28:41.420Z,15.63
2018-10-06T19:31:08.995Z,13.40
2018-10-06T19:33:37.028Z,10.40
2018-10-06T19:36:05.256Z,12.53
2018-10-06T19:38:33.081Z,10.00
2018-10-06T19:41:02.485Z,8.90
2018-10-06T19:43:30.966Z,7.43
2018-10-06T19:45:58.727Z,9.70
2018-10-06T19:48:26.878Z,9.93
2018-10-06T19:50:54.537Z,7.07
2018-10-06T19:53:22.125Z,6.10
2018-10-06T19:55:50.741Z,4.90
2018-10-06T19:58:19.238Z,4.57
2018-10-06T20:00:46.944Z,4.30
2018-10-06T20:03:15.085Z,3.70
2018-10-06T20:05:42.732Z,3.90
2018-10-06T20:08:11.038Z,4.23
2018-10-06T20:10:39.956Z,4.07
2018-10-06T20:13:07.589Z,5.43
2018-10-06T20:15:35.587Z,3.30
2018-10-06T20:18:03.123Z,3.40
2018-10-06T20:20:31.532Z,3.67
2018-10-06T20:23:00.221Z,4.57
2018-10-06T20:25:28.347Z,3.80
2018-10-06T20:27:56.009Z,4.60
2018-10-06T20:30:24.549Z,5.17
2018-10-06T20:32:52.859Z,5.90
2018-10-06T20:35:20.437Z,5.70
2018-10-06T20:37:47.967Z,6.13
2018-10-06T20:40:16.824Z,4.77
2018-10-06T20:42:44.984Z,4.93
2018-10-06T20:45:13.117Z,5.40
2018-10-06T20:47:41.094Z,4.30
2018-10-06T20:50:08.699Z,5.03
2018-10-06T20:52:36.320Z,5.03
2018-10-06T20:55:04.021Z,4.33
2018-10-06T20:57:31.606Z,4.40
2018-10-06T20:59:59.504Z,3.43
2018-10-06T21:02:27.061Z,2.97
2018-10-06T21:04:54.768Z,4.40
2018-10-06T21:07:22.537Z,4.40
2018-10-06T21:09:50.373Z,4.13
2018-10-06T21:12:18.236Z,7.53
2018-10-06T21:14:47.042Z,6.17
2018-10-06T21:17:15.429Z,4.60
2018-10-06T21:19:43.501Z,8.80
2018-10-06T21:22:11.574Z,8.60
2018-10-06T21:24:39.476Z,7.13
2018-10-06T21:27:07.635Z,7.40
2018-10-06T21:29:35.692Z,5.70
2018-10-06T21:32:03.211Z,5.03
2018-10-06T21:34:31.131Z,6.20
2018-10-06T21:36:58.638Z,5.70
2018-10-06T21:39:26.414Z,6.33
2018-10-06T21:41:54.405Z,5.17
2018-10-06T21:44:22.611Z,5.90
2018-10-06T21:46:50.107Z,6.80
2018-10-06T21:49:18.117Z,6.90
2018-10-06T21:51:45.603Z,6.20
2018-10-06T21:54:13.089Z,6.20
2018-10-06T21:56:40.747Z,6.20
2018-10-06T21:59:08.421Z,5.07
2018-10-06T22:01:36.139Z,7.20
2018-10-06T22:04:04.166Z,6.33
2018-10-06T22:06:31.765Z,6.97
2018-10-06T22:08:59.270Z,6.60
2018-10-06T22:11:26.958Z,8.33
2018-10-06T22:13:54.456Z,7.00
2018-10-06T22:16:24.017Z,6.90
2018-10-06T22:18:52.308Z,7.00
2018-10-06T22:21:20.392Z,7.70
2018-10-06T22:23:48.512Z,6.47
2018-10-06T22:26:16.751Z,5.87
2018-10-06T22:28:44.820Z,6.07
2018-10-06T22:31:12.335Z,5.70
2018-10-06T22:33:40.665Z,5.60
2018-10-06T22:36:08.149Z,5.43
2018-10-06T22:38:37.235Z,5.50
2018-10-06T22:41:05.427Z,5.87
2018-10-06T22:43:33.007Z,5.80
2018-10-06T22:46:00.478Z,5.63
2018-10-06T22:48:28.842Z,6.03
2018-10-06T22:50:56.321Z,6.50
2018-10-06T22:53:23.836Z,5.03
2018-10-06T22:55:51.613Z,7.97
2018-10-06T22:58:19.111Z,5.70
2018-10-06T23:00:46.686Z,4.90
2018-10-06T23:03:14.456Z,5.10
2018-10-06T23:05:41.959Z,4.67
2018-10-06T23:08:09.448Z,5.17
2018-10-06T23:10:38.025Z,5.80
2018-10-06T23:13:06.628Z,5.00
2018-10-06T23:15:34.894Z,6.77
2018-10-06T23:18:03.670Z,5.50
2018-10-06T23:20:33.193Z,6.47
2018-10-06T23:23:01.284Z,5.87
2018-10-06T23:25:29.435Z,6.10
2018-10-06T23:27:56.939Z,6.60
2018-10-06T23:30:24.455Z,8.00
2018-10-06T23:32:52.873Z,5.80
2018-10-06T23:35:20.663Z,5.60
2018-10-06T23:37:48.159Z,4.30
2018-10-06T23:40:16.379Z,3.87
2018-10-06T23:42:44.753Z,4.20
2018-10-06T23:45:12.252Z,6.13
2018-10-06T23:47:40.201Z,5.80
2018-10-06T23:50:08.007Z,4.90
2018-10-06T23:52:35.575Z,4.83
2018-10-06T23:55:03.804Z,5.00
2018-10-06T23:57:31.312Z,5.10
2018-10-06T23:59:58.910Z,5.20
